Time;durP1;ratioP1;P1;durP2;ratioP2;P2;SDS_P1;SDS_P2;PMS_P1;PMS_P2;Temp;Humidity;BMP_temperature;BMP_pressure;BME280_temperature;BME280_humidity;BME280_pressure;Samples;Min_cycle;Max_cycle;Signal;HPM_P1;HPM_P2
2023/05/31 00:04:25;;;;;;;8.38;3.55;;;;;;;9.67;100.00;102784.72;10420868;28;20037;-70
2023/05/31 00:09:26;;;;;;;7.90;3.60;;;;;;;9.59;100.00;102769.25;10419034;28;20037;-69
2023/05/31 00:14:26;;;;;;;9.70;3.35;;;;;;;9.56;100.00;102782.56;10420363;28;20037;-70
2023/05/31 00:19:26;;;;;;;8.63;2.50;;;;;;;9.50;100.00;102779.53;10419701;28;20040;-70
2023/05/31 00:24:27;;;;;;;14.52;3.38;;;;;;;9.47;100.00;102777.22;10420452;28;20029;-69
2023/05/31 00:29:28;;;;;;;5.45;3.22;;;;;;;9.46;100.00;102766.41;10419652;28;20037;-70
2023/05/31 00:34:29;;;;;;;8.57;3.10;;;;;;;9.39;100.00;102760.88;10419807;28;20049;-70
2023/05/31 00:39:29;;;;;;;6.65;2.63;;;;;;;9.34;100.00;102755.09;10419418;28;20031;-69
2023/05/31 00:44:30;;;;;;;7.45;3.20;;;;;;;9.27;100.00;102752.31;10418741;28;20061;-69
2023/05/31 00:49:30;;;;;;;8.57;2.65;;;;;;;9.16;100.00;102755.63;10416926;28;20091;-70
2023/05/31 00:54:31;;;;;;;7.82;3.33;;;;;;;9.06;100.00;102755.13;10416341;28;20040;-69
2023/05/31 00:59:31;;;;;;;9.07;3.13;;;;;;;8.96;100.00;102752.69;10419098;28;20041;-70
2023/05/31 01:04:32;;;;;;;8.65;3.85;;;;;;;8.88;100.00;102758.31;10417524;28;20084;-71
2023/05/31 01:09:34;;;;;;;18.77;4.35;;;;;;;8.82;100.00;102751.72;10417308;28;20046;-70
2023/05/31 01:15:32;;;;;;;12.68;4.10;;;;;;;8.86;100.00;102750.28;10400311;28;20477;-70
2023/05/31 01:20:33;;;;;;;9.70;3.58;;;;;;;8.76;100.00;102738.75;10375343;28;20141;-70
2023/05/31 01:25:52;;;;;;;8.88;3.60;;;;;;;8.73;100.00;102744.66;10350300;28;20049;-70
2023/05/31 01:30:53;;;;;;;8.45;4.05;;;;;;;8.66;100.00;102750.09;10376867;28;20126;-69
2023/05/31 01:35:53;;;;;;;9.52;4.55;;;;;;;8.62;100.00;102742.41;10358619;28;20030;-70
2023/05/31 01:40:54;;;;;;;15.30;3.85;;;;;;;8.50;100.00;102744.84;10376921;28;20053;-70
2023/05/31 01:45:55;;;;;;;10.32;3.88;;;;;;;8.43;100.00;102749.41;10358617;28;20046;-70
2023/05/31 01:50:56;;;;;;;10.43;3.60;;;;;;;8.29;100.00;102748.41;10386306;28;20095;-70
2023/05/31 01:55:56;;;;;;;11.00;4.25;;;;;;;8.22;100.00;102747.44;10397038;28;20077;-71
2023/05/31 02:00:58;;;;;;;14.55;4.65;;;;;;;8.18;100.00;102751.63;10375586;28;20072;-70
2023/05/31 02:05:59;;;;;;;9.50;3.83;;;;;;;8.07;100.00;102740.09;10357102;28;20038;-71
2023/05/31 02:11:00;;;;;;;14.65;4.03;;;;;;;8.11;100.00;102761.69;10356242;28;20054;-70
2023/05/31 02:16:00;;;;;;;15.50;4.97;;;;;;;8.07;100.00;102756.56;10374843;28;20033;-70
2023/05/31 02:21:01;;;;;;;10.05;3.97;;;;;;;8.04;100.00;102761.56;10372361;28;20117;-71
2023/05/31 02:26:01;;;;;;;16.70;3.53;;;;;;;7.96;100.00;102767.16;10372737;28;20533;-70
2023/05/31 02:31:02;;;;;;;11.55;4.57;;;;;;;7.96;100.00;102764.41;10357261;28;20052;-70
2023/05/31 02:36:03;;;;;;;14.48;5.28;;;;;;;7.95;100.00;102768.22;10373951;28;20038;-69
2023/05/31 02:41:03;;;;;;;13.75;5.82;;;;;;;7.96;100.00;102768.03;10374516;28;20107;-70
2023/05/31 02:46:04;;;;;;;18.88;5.53;;;;;;;7.97;100.00;102777.09;10357102;28;20030;-70
2023/05/31 02:51:05;;;;;;;12.02;5.85;;;;;;;7.96;100.00;102767.16;10372319;28;20053;-70
2023/05/31 02:56:05;;;;;;;21.33;6.43;;;;;;;7.98;100.00;102774.19;10372918;28;20068;-70
2023/05/31 03:01:06;;;;;;;23.95;8.43;;;;;;;8.02;100.00;102764.53;10373017;28;20058;-72
2023/05/31 03:06:06;;;;;;;30.10;9.35;;;;;;;8.03;100.00;102760.72;10372947;28;20045;-70
2023/05/31 03:11:07;;;;;;;28.05;8.60;;;;;;;8.04;100.00;102761.56;10371589;28;20042;-70
2023/05/31 03:16:07;;;;;;;31.77;10.77;;;;;;;8.06;100.00;102764.97;10373410;28;20034;-68
2023/05/31 03:21:08;;;;;;;33.65;12.00;;;;;;;8.07;100.00;102766.69;10370136;28;20128;-70
2023/05/31 03:26:08;;;;;;;30.23;11.88;;;;;;;8.10;100.00;102771.78;10408220;28;20456;-69
2023/05/31 03:31:09;;;;;;;25.77;10.05;;;;;;;8.10;100.00;102769.03;10413662;28;20037;-70
2023/05/31 03:36:09;;;;;;;26.48;10.93;;;;;;;8.08;100.00;102768.38;10411587;28;20038;-70
2023/05/31 03:41:10;;;;;;;30.38;9.95;;;;;;;8.05;100.00;102769.63;10413100;28;20079;-70
2023/05/31 03:46:10;;;;;;;29.75;9.63;;;;;;;8.03;100.00;102766.22;10413596;28;20038;-71
2023/05/31 03:51:11;;;;;;;27.15;9.25;;;;;;;8.23;100.00;102763.72;10412424;28;20513;-70
2023/05/31 03:56:11;;;;;;;28.42;8.93;;;;;;;8.35;100.00;102774.19;10411637;28;20520;-70
2023/05/31 04:01:12;;;;;;;33.97;9.95;;;;;;;8.49;100.00;102773.34;10411314;28;20129;-69
2023/05/31 04:06:12;;;;;;;32.63;10.23;;;;;;;8.58;100.00;102777.69;10411815;28;20037;-68
2023/05/31 04:11:13;;;;;;;26.48;8.25;;;;;;;8.64;100.00;102773.28;10413020;28;20049;-71
2023/05/31 04:16:13;;;;;;;24.80;7.80;;;;;;;8.75;100.00;102786.50;10412994;28;20037;-70
2023/05/31 04:21:14;;;;;;;32.47;9.48;;;;;;;8.80;100.00;102780.44;10409772;28;20030;-70
2023/05/31 04:26:17;;;;;;;29.98;8.43;;;;;;;8.85;100.00;102780.69;10410336;28;20478;-70
2023/05/31 04:31:17;;;;;;;19.63;7.35;;;;;;;8.91;100.00;102785.41;10412167;28;20117;-70
2023/05/31 04:36:18;;;;;;;25.42;7.32;;;;;;;8.92;100.00;102773.38;10411365;28;20034;-70
2023/05/31 04:41:20;;;;;;;18.88;7.78;;;;;;;9.11;100.00;102774.59;10419881;28;20041;-70
2023/05/31 04:46:22;;;;;;;24.58;7.80;;;;;;;9.24;100.00;102773.84;10419896;28;20033;-70
2023/05/31 04:51:22;;;;;;;25.83;8.00;;;;;;;9.35;100.00;102778.81;10416816;28;20083;-70
2023/05/31 04:56:24;;;;;;;25.85;8.05;;;;;;;9.49;100.00;102777.88;10422884;28;20114;-71
2023/05/31 05:01:26;;;;;;;26.15;8.38;;;;;;;9.64;100.00;102785.16;10446578;28;20038;-70
2023/05/31 05:06:27;;;;;;;25.60;9.05;;;;;;;9.67;100.00;102776.50;10418403;28;20038;-70
2023/05/31 05:11:28;;;;;;;27.98;9.95;;;;;;;9.84;100.00;102791.63;10418678;28;20037;-70
2023/05/31 05:16:29;;;;;;;25.33;8.75;;;;;;;9.94;100.00;102784.91;10418766;28;20116;-70
2023/05/31 05:21:30;;;;;;;18.83;8.52;;;;;;;10.14;100.00;102796.88;10418637;28;20053;-70
2023/05/31 05:26:30;;;;;;;30.75;9.98;;;;;;;10.30;100.00;102802.06;10415820;28;20041;-70
2023/05/31 05:31:31;;;;;;;31.52;10.35;;;;;;;10.48;100.00;102798.75;10416426;28;20044;-71
2023/05/31 05:36:32;;;;;;;20.27;9.85;;;;;;;10.64;100.00;102793.91;10416083;28;20033;-70
2023/05/31 05:41:32;;;;;;;22.80;8.55;;;;;;;10.82;100.00;102787.81;10417773;28;20049;-71
2023/05/31 05:46:33;;;;;;;18.25;7.60;;;;;;;11.00;100.00;102793.56;10411156;28;20056;-71
2023/05/31 05:51:33;;;;;;;18.25;7.18;;;;;;;11.30;100.00;102787.63;10413283;28;20053;-71
2023/05/31 05:56:34;;;;;;;15.15;6.95;;;;;;;11.63;100.00;102784.00;10415156;28;20057;-71
2023/05/31 06:01:35;;;;;;;14.25;5.70;;;;;;;11.98;100.00;102778.22;10415524;28;20037;-71
2023/05/31 06:06:36;;;;;;;20.50;6.65;;;;;;;12.28;100.00;102765.56;10416704;28;20422;-71
2023/05/31 06:11:36;;;;;;;13.48;5.38;;;;;;;12.65;100.00;102759.41;10416568;28;20232;-71
2023/05/31 06:16:37;;;;;;;13.63;6.13;;;;;;;12.90;100.00;102763.06;10416675;28;20519;-71
2023/05/31 06:21:37;;;;;;;7.93;4.18;;;;;;;13.19;100.00;102759.84;10415954;28;20481;-72
2023/05/31 06:26:45;;;;;;;13.45;4.70;;;;;;;13.48;100.00;102756.44;10387693;28;20042;-71
2023/05/31 06:31:45;;;;;;;6.22;2.95;;;;;;;13.68;100.00;102752.59;10372809;28;20494;-70
2023/05/31 06:36:46;;;;;;;7.20;2.72;;;;;;;13.90;100.00;102745.53;10375096;28;20041;-70
2023/05/31 06:41:46;;;;;;;9.50;3.38;;;;;;;14.03;100.00;102738.16;10374779;28;20053;-70
2023/05/31 06:46:47;;;;;;;5.43;2.65;;;;;;;14.33;100.00;102744.56;10386643;28;20042;-70
2023/05/31 06:51:47;;;;;;;8.70;3.10;;;;;;;14.62;100.00;102744.00;10399379;28;20037;-70
2023/05/31 06:56:48;;;;;;;9.50;2.60;;;;;;;14.85;100.00;102740.44;10445967;28;20154;-70
2023/05/31 07:01:48;;;;;;;8.60;3.45;;;;;;;15.07;100.00;102737.97;10454905;28;20029;-70
2023/05/31 07:06:49;;;;;;;10.02;2.50;;;;;;;15.29;100.00;102741.81;10453408;28;20033;-69
2023/05/31 07:11:50;;;;;;;7.93;2.60;;;;;;;15.52;100.00;102734.56;10453855;28;20076;-66
2023/05/31 07:16:50;;;;;;;7.45;2.40;;;;;;;15.69;100.00;102735.53;10456475;28;20044;-70
2023/05/31 07:21:50;;;;;;;8.02;2.17;;;;;;;15.94;100.00;102729.72;10451291;28;20033;-69
2023/05/31 07:26:51;;;;;;;7.43;2.78;;;;;;;15.90;100.00;102711.88;10411946;28;20026;-70
2023/05/31 07:31:51;;;;;;;5.53;1.88;;;;;;;16.28;100.00;102721.50;10410718;28;20038;-70
2023/05/31 07:36:52;;;;;;;5.13;2.40;;;;;;;16.57;100.00;102707.59;10413750;28;20030;-70
2023/05/31 07:41:53;;;;;;;6.97;2.20;;;;;;;16.79;100.00;102698.53;10413897;28;20044;-70
2023/05/31 07:46:53;;;;;;;10.15;2.20;;;;;;;17.07;100.00;102704.03;10412145;28;20429;-70
2023/05/31 07:51:54;;;;;;;8.73;3.40;;;;;;;16.90;100.00;102698.47;10413015;28;20038;-69
2023/05/31 07:56:55;;;;;;;9.30;3.08;;;;;;;17.09;100.00;102709.34;10411920;28;20064;-69
2023/05/31 08:01:55;;;;;;;7.40;2.20;;;;;;;17.28;100.00;102690.44;10405435;28;20046;-69
2023/05/31 08:06:56;;;;;;;9.70;2.55;;;;;;;17.35;100.00;102699.47;10392128;28;20053;-71
2023/05/31 08:11:56;;;;;;;5.80;2.25;;;;;;;17.42;100.00;102696.50;10393887;28;20061;-72
2023/05/31 08:16:57;;;;;;;8.52;2.70;;;;;;;17.58;100.00;102690.03;10400016;28;20048;-72
2023/05/31 08:21:58;;;;;;;6.70;2.08;;;;;;;17.71;100.00;102700.81;10399188;28;20052;-69
2023/05/31 08:26:58;;;;;;;6.97;2.25;;;;;;;17.91;100.00;102677.97;10398973;28;20037;-70
2023/05/31 08:31:58;;;;;;;10.30;2.78;;;;;;;18.08;100.00;102688.19;10398280;28;20042;-69
2023/05/31 08:36:59;;;;;;;4.22;2.35;;;;;;;18.18;100.00;102682.72;10422381;28;20042;-69
2023/05/31 08:42:02;;;;;;;4.63;2.25;;;;;;;18.31;100.00;102660.03;10397266;28;20030;-69
2023/05/31 08:47:21;;;;;;;4.18;2.10;;;;;;;18.52;100.00;102669.44;10415168;28;20041;-70
2023/05/31 08:52:21;;;;;;;6.68;2.47;;;;;;;18.58;100.00;102670.28;10419804;28;20087;-70
2023/05/31 08:57:22;;;;;;;7.25;2.38;;;;;;;18.65;100.00;102664.53;10401030;28;20544;-70
2023/05/31 09:02:23;;;;;;;8.68;2.33;;;;;;;18.75;100.00;102659.88;10418184;28;20069;-70
2023/05/31 09:07:24;;;;;;;3.40;1.85;;;;;;;18.94;100.00;102645.53;10416667;28;20113;-70
2023/05/31 09:12:24;;;;;;;5.50;2.42;;;;;;;19.25;100.00;102652.16;10416881;28;20033;-70
2023/05/31 09:17:25;;;;;;;8.93;3.38;;;;;;;19.13;100.00;102660.72;10416138;28;20448;-70
2023/05/31 09:22:26;;;;;;;7.20;2.55;;;;;;;19.08;100.00;102660.72;10381734;28;20038;-69
2023/05/31 09:27:33;;;;;;;10.27;2.50;;;;;;;19.18;100.00;102656.28;10399507;28;20162;-70
2023/05/31 09:32:34;;;;;;;7.63;3.22;;;;;;;19.36;100.00;102667.00;10394494;28;20464;-70
2023/05/31 09:37:44;;;;;;;10.30;2.97;;;;;;;19.51;100.00;102667.13;10395518;28;20083;-70
2023/05/31 09:42:51;;;;;;;8.07;3.63;;;;;;;19.46;100.00;102667.06;10393659;28;20047;-69
2023/05/31 09:47:52;;;;;;;6.82;3.45;;;;;;;19.63;100.00;102657.66;10387005;28;20498;-69
2023/05/31 09:52:57;;;;;;;13.20;3.85;;;;;;;19.45;100.00;102662.63;10357758;28;20042;-69
2023/05/31 09:57:57;;;;;;;8.82;3.53;;;;;;;19.17;100.00;102663.00;10388640;28;20049;-69
2023/05/31 10:02:58;;;;;;;10.65;3.83;;;;;;;18.75;100.00;102664.63;10414196;28;20095;-69
2023/05/31 10:07:58;;;;;;;10.82;4.70;;;;;;;18.97;100.00;102664.53;10416134;28;20046;-71
2023/05/31 10:12:59;;;;;;;8.07;4.15;;;;;;;18.93;100.00;102660.59;10414637;28;20107;-70
2023/05/31 10:18:03;;;;;;;12.75;4.40;;;;;;;19.12;100.00;102659.06;10414541;28;20030;-70
2023/05/31 10:23:05;;;;;;;9.13;4.65;;;;;;;19.26;100.00;102653.81;10412746;28;20048;-71
2023/05/31 10:28:11;;;;;;;11.77;4.50;;;;;;;19.55;100.00;102645.91;10397451;28;20059;-69
2023/05/31 10:33:12;;;;;;;7.73;4.10;;;;;;;19.85;100.00;102633.19;10398135;28;20033;-70
2023/05/31 10:38:13;;;;;;;8.02;3.90;;;;;;;19.48;100.00;102631.34;10413249;28;20065;-70
2023/05/31 10:43:37;;;;;;;7.65;3.50;;;;;;;19.96;100.00;102640.47;10380620;28;20030;-70
2023/05/31 10:48:53;;;;;;;17.92;5.47;;;;;;;20.33;100.00;102633.84;10413281;28;20041;-70
2023/05/31 10:53:53;;;;;;;6.53;4.07;;;;;;;20.20;100.00;102622.38;10383223;28;20042;-71
2023/05/31 10:58:55;;;;;;;6.68;3.65;;;;;;;20.44;100.00;102623.50;10374793;28;20040;-71
2023/05/31 11:03:58;;;;;;;10.32;3.75;;;;;;;20.27;100.00;102607.00;10411642;28;20098;-70
2023/05/31 11:09:08;;;;;;;12.82;4.07;;;;;;;20.46;100.00;102600.84;10411966;28;20046;-70
2023/05/31 11:14:29;;;;;;;8.30;3.97;;;;;;;20.32;100.00;102590.22;10411965;28;20033;-69
2023/05/31 11:19:31;;;;;;;8.90;3.70;;;;;;;20.63;100.00;102595.88;10413278;28;20038;-69
2023/05/31 11:24:48;;;;;;;9.15;3.33;;;;;;;20.92;100.00;102593.31;10412339;28;20039;-70
2023/05/31 11:29:51;;;;;;;7.05;3.10;;;;;;;21.16;100.00;102595.47;10413569;28;20057;-69
2023/05/31 11:34:57;;;;;;;8.93;3.50;;;;;;;21.11;100.00;102576.72;10413925;28;20038;-69
2023/05/31 11:40:11;;;;;;;7.03;3.03;;;;;;;21.29;100.00;102571.63;10347347;28;20603;-69
2023/05/31 11:45:13;;;;;;;7.85;2.65;;;;;;;21.52;100.00;102571.00;10359383;28;20042;-69
2023/05/31 11:50:17;;;;;;;9.73;3.33;;;;;;;22.15;100.00;102567.50;10405069;28;20042;-70
2023/05/31 11:55:17;;;;;;;7.13;3.05;;;;;;;22.18;100.00;102563.31;10401330;28;20033;-69
2023/05/31 12:00:21;;;;;;;9.43;2.75;;;;;;;21.94;100.00;102558.41;10410889;28;20034;-70
2023/05/31 12:05:22;;;;;;;5.38;2.35;;;;;;;22.27;100.00;102563.56;10338039;28;20046;-70
2023/05/31 12:10:26;;;;;;;9.02;2.85;;;;;;;22.96;100.00;102553.91;10337414;28;20138;-71
2023/05/31 12:15:29;;;;;;;7.07;2.63;;;;;;;23.30;100.00;102550.16;10379425;28;20494;-69
2023/05/31 12:20:30;;;;;;;7.63;3.03;;;;;;;23.40;100.00;102548.31;10385617;28;20053;-70
2023/05/31 12:25:31;;;;;;;6.97;2.85;;;;;;;22.93;100.00;102536.81;10398269;28;20045;-72
2023/05/31 12:30:31;;;;;;;8.93;3.40;;;;;;;22.80;100.00;102548.72;10379542;28;20042;-70
2023/05/31 12:35:31;;;;;;;6.60;3.42;;;;;;;23.00;100.00;102537.28;10397298;28;20066;-70
2023/05/31 12:40:32;;;;;;;6.13;2.50;;;;;;;23.12;100.00;102532.09;10370183;28;20038;-71
2023/05/31 12:45:37;;;;;;;9.27;2.80;;;;;;;23.64;100.00;102518.19;10379602;28;20033;-70
2023/05/31 12:50:47;;;;;;;7.10;2.57;;;;;;;23.66;100.00;102521.53;10408366;28;20117;-70
2023/05/31 12:55:47;;;;;;;5.93;2.80;;;;;;;23.31;100.00;102508.81;10416089;28;20045;-69
2023/05/31 13:00:48;;;;;;;4.97;1.85;;;;;;;24.15;96.24;102510.97;10398544;28;20596;-68
2023/05/31 13:05:48;;;;;;;68.82;8.00;;;;;;;24.39;95.84;102499.56;10416829;28;20033;-68
2023/05/31 13:10:49;;;;;;;4.38;2.45;;;;;;;24.31;95.20;102503.94;10413434;28;20125;-68
2023/05/31 13:15:49;;;;;;;6.20;2.20;;;;;;;24.26;93.39;102495.56;10416472;28;20643;-73
2023/05/31 13:20:50;;;;;;;4.65;2.40;;;;;;;24.15;94.61;102505.34;10410277;28;20045;-68
2023/05/31 13:25:50;;;;;;;7.88;2.90;;;;;;;24.23;93.25;102492.56;10393870;28;20030;-68
2023/05/31 13:30:51;;;;;;;4.80;2.60;;;;;;;24.74;91.98;102495.28;10398798;28;20336;-67
2023/05/31 13:35:51;;;;;;;10.20;2.58;;;;;;;24.81;90.52;102489.22;10406884;28;20042;-68
2023/05/31 13:40:52;;;;;;;6.25;2.55;;;;;;;25.05;88.28;102479.72;10392073;28;20297;-69
2023/05/31 13:45:52;;;;;;;3.58;2.00;;;;;;;25.09;89.68;102486.38;10376253;28;20049;-69
2023/05/31 13:50:53;;;;;;;5.25;2.03;;;;;;;25.50;85.86;102466.59;10362174;28;1108887;-69
2023/05/31 13:55:53;;;;;;;6.43;2.80;;;;;;;24.97;86.55;102464.38;10391967;28;20037;-69
2023/05/31 14:00:54;;;;;;;6.93;2.55;;;;;;;24.74;87.39;102467.13;10395639;28;20110;-70
2023/05/31 14:05:54;;;;;;;6.28;2.40;;;;;;;24.91;85.10;102465.66;10386423;28;20084;-70
2023/05/31 14:10:55;;;;;;;8.52;2.47;;;;;;;24.66;87.22;102458.53;10374124;28;20038;-69
2023/05/31 14:15:56;;;;;;;9.23;2.05;;;;;;;25.42;86.03;102458.91;10375128;28;20563;-69
2023/05/31 14:20:56;;;;;;;5.47;2.10;;;;;;;25.56;82.73;102447.59;10375186;28;20049;-70
2023/05/31 14:25:57;;;;;;;5.13;1.83;;;;;;;26.10;82.89;102442.88;10375013;28;20049;-70
2023/05/31 14:30:57;;;;;;;6.13;1.95;;;;;;;25.86;80.80;102446.00;10375008;28;20045;-70
2023/05/31 14:35:58;;;;;;;7.10;1.90;;;;;;;25.94;80.28;102422.69;10372941;28;20037;-70
2023/05/31 14:40:58;;;;;;;9.40;1.80;;;;;;;25.96;79.50;102434.50;10372343;28;20185;-69
2023/05/31 14:45:59;;;;;;;8.73;2.33;;;;;;;25.28;80.88;102424.28;10374042;28;20034;-70
2023/05/31 14:50:59;;;;;;;3.72;2.38;;;;;;;24.84;80.96;102426.63;10374124;28;20034;-69
2023/05/31 14:56:00;;;;;;;3.72;1.88;;;;;;;25.13;79.88;102423.44;10373412;28;20045;-71
2023/05/31 15:01:00;;;;;;;8.45;2.20;;;;;;;24.55;79.96;102421.31;10373635;28;20066;-70
2023/05/31 15:06:01;;;;;;;7.82;2.47;;;;;;;24.38;81.64;102421.91;10371627;28;20030;-70
2023/05/31 15:11:01;;;;;;;6.22;1.85;;;;;;;25.10;81.51;102432.53;10410990;28;20057;-70
2023/05/31 15:16:02;;;;;;;5.07;2.10;;;;;;;25.49;79.20;102431.13;10414316;28;20047;-69
2023/05/31 15:21:03;;;;;;;6.85;2.00;;;;;;;24.64;78.46;102430.72;10411567;28;20065;-69
2023/05/31 15:26:03;;;;;;;12.35;1.65;;;;;;;23.90;82.63;102425.88;10413995;28;20030;-69
2023/05/31 15:31:10;;;;;;;5.00;2.20;;;;;;;23.54;81.69;102434.00;10411135;28;20037;-70
2023/05/31 15:36:10;;;;;;;2.63;1.58;;;;;;;24.38;81.43;102435.97;10411857;28;20490;-70
2023/05/31 15:41:11;;;;;;;6.03;2.42;;;;;;;24.01;81.18;102425.69;10409892;28;20033;-76
2023/05/31 15:46:11;;;;;;;7.20;1.95;;;;;;;24.98;76.98;102412.53;10412127;28;20033;-76
2023/05/31 15:51:12;;;;;;;5.15;2.20;;;;;;;24.63;77.80;102414.94;10347954;28;20065;-74
2023/05/31 15:56:12;;;;;;;6.35;2.10;;;;;;;24.63;78.21;102425.38;10365130;28;20042;-75
2023/05/31 16:01:15;;;;;;;6.78;2.80;;;;;;;23.73;78.89;102425.53;10382163;28;20038;-72
2023/05/31 16:06:17;;;;;;;6.70;3.40;;;;;;;23.34;79.70;102435.16;10379645;28;20108;-75
2023/05/31 16:11:18;;;;;;;7.97;5.07;;;;;;;23.09;81.32;102428.78;10352659;23;20078;-76
2023/05/31 16:16:18;;;;;;;11.93;5.10;;;;;;;22.94;82.00;102428.94;10248890;28;20043;-74
2023/05/31 16:21:19;;;;;;;10.63;5.25;;;;;;;23.13;81.16;102424.22;10250512;28;20118;-74
2023/05/31 16:26:20;;;;;;;9.82;5.65;;;;;;;23.26;80.46;102419.81;10265204;28;20050;-74
2023/05/31 16:31:21;;;;;;;8.60;4.22;;;;;;;23.57;80.28;102411.75;10268670;28;20097;-73
2023/05/31 16:36:21;;;;;;;6.18;3.15;;;;;;;23.92;78.38;102412.31;10271390;28;20113;-74
2023/05/31 16:41:22;;;;;;;5.25;2.80;;;;;;;23.47;78.25;102400.66;10272095;28;20047;-73
2023/05/31 16:46:22;;;;;;;4.72;3.20;;;;;;;22.91;80.82;102423.94;10256129;28;20047;-73
2023/05/31 16:51:23;;;;;;;6.43;3.40;;;;;;;22.01;81.31;102415.06;10232831;28;20047;-73
2023/05/31 16:56:23;;;;;;;10.20;3.50;;;;;;;19.93;86.82;102430.56;10259165;28;20152;-70
2023/05/31 17:01:24;;;;;;;7.63;3.95;;;;;;;18.17;93.82;102444.13;10259934;28;20032;-72
2023/05/31 17:06:25;;;;;;;9.60;4.70;;;;;;;17.42;100.00;102455.09;10278251;28;20099;-72
2023/05/31 17:11:26;;;;;;;9.98;3.92;;;;;;;17.03;100.00;102455.25;10241583;28;20083;-72
2023/05/31 17:16:26;;;;;;;9.73;5.10;;;;;;;17.34;100.00;102445.31;10257873;28;20035;-71
2023/05/31 17:21:28;;;;;;;10.65;5.28;;;;;;;16.89;100.00;102426.13;10233909;28;20039;-73
2023/05/31 17:26:29;;;;;;;12.98;3.78;;;;;;;16.43;100.00;102433.81;10254883;28;20054;-74
2023/05/31 17:31:29;;;;;;;11.23;4.65;;;;;;;15.91;100.00;102443.28;10255976;28;20031;-73
2023/05/31 17:36:31;;;;;;;11.35;5.43;;;;;;;15.69;100.00;102452.34;10255553;28;20031;-73
2023/05/31 17:41:31;;;;;;;16.45;5.07;;;;;;;15.52;100.00;102441.22;10237155;28;20179;-74
2023/05/31 17:46:32;;;;;;;9.27;4.53;;;;;;;15.44;100.00;102444.38;10253526;28;20776;-73
2023/05/31 17:51:32;;;;;;;12.82;4.93;;;;;;;15.01;100.00;102445.75;10232111;28;20042;-73
2023/05/31 17:56:33;;;;;;;15.93;5.72;;;;;;;15.13;100.00;102438.25;10255680;28;20039;-73
2023/05/31 18:01:39;;;;;;;10.52;6.68;;;;;;;15.09;100.00;102433.44;10255651;28;20035;-74
2023/05/31 18:06:40;;;;;;;;;;;;;;;15.21;100.00;102433.38;10255143;28;20028;-75
2023/05/31 18:11:41;;;;;;;16.38;4.38;;;;;;;15.07;100.00;102425.34;10253316;28;19930;-73
2023/05/31 18:16:41;;;;;;;25.00;16.40;;;;;;;14.91;100.00;102426.13;10237838;28;20106;-74
2023/05/31 18:21:44;;;;;;;21.65;10.95;;;;;;;14.59;100.00;102404.38;10268284;28;20103;-74
2023/05/31 18:26:44;;;;;;;16.10;6.55;;;;;;;14.42;100.00;102431.97;10252489;28;20094;-72
2023/05/31 18:31:45;;;;;;;10.18;5.57;;;;;;;14.20;100.00;102404.06;10255120;28;20059;-73
2023/05/31 18:36:45;;;;;;;10.00;4.15;;;;;;;14.21;100.00;102414.03;10255087;28;20039;-74
2023/05/31 18:41:46;;;;;;;12.23;4.05;;;;;;;14.02;100.00;102420.78;10235699;28;20133;-72
2023/05/31 18:46:52;;;;;;;9.77;4.55;;;;;;;13.55;100.00;102431.78;10253728;28;20046;-68
2023/05/31 18:51:54;;;;;;;11.27;3.22;;;;;;;13.43;100.00;102442.78;10260595;28;20049;-68
2023/05/31 18:57:00;;;;;;;11.85;3.20;;;;;;;13.19;100.00;102428.84;10251443;28;20055;-68
2023/05/31 19:02:01;;;;;;;;;;;;;;;13.21;100.00;102446.06;10290465;28;20038;-68
2023/05/31 19:07:01;;;;;;;5.88;2.60;;;;;;;13.23;100.00;102426.44;10289067;28;19918;-69
2023/05/31 19:12:02;;;;;;;10.07;2.80;;;;;;;13.24;100.00;102447.50;10284021;28;20045;-69
2023/05/31 19:17:03;;;;;;;6.50;3.22;;;;;;;13.12;100.00;102445.53;10289197;28;20046;-70
2023/05/31 19:22:06;;;;;;;7.85;3.17;;;;;;;13.21;100.00;102437.75;10286787;28;20043;-70
2023/05/31 19:27:07;;;;;;;8.27;2.65;;;;;;;12.94;100.00;102442.78;10245396;28;20038;-70
2023/05/31 19:32:07;;;;;;;9.80;2.83;;;;;;;12.83;100.00;102438.84;10271318;28;20106;-69
2023/05/31 19:37:09;;;;;;;6.50;2.80;;;;;;;12.74;100.00;102453.25;10262055;28;20433;-70
2023/05/31 19:42:10;;;;;;;7.95;2.35;;;;;;;12.62;100.00;102445.69;10251627;28;20059;-69
2023/05/31 19:47:12;;;;;;;6.82;2.38;;;;;;;12.54;100.00;102453.44;10278419;28;20093;-70
2023/05/31 19:52:13;;;;;;;5.03;2.70;;;;;;;12.38;100.00;102455.75;10288384;28;20050;-69
2023/05/31 19:57:15;;;;;;;7.63;2.10;;;;;;;12.44;100.00;102445.69;10277171;28;20193;-70
2023/05/31 20:02:15;;;;;;;5.93;2.20;;;;;;;12.44;100.00;102452.06;10284157;28;20533;-69
2023/05/31 20:07:16;;;;;;;12.85;2.65;;;;;;;12.43;100.00;102468.88;10290445;28;20042;-70
2023/05/31 20:12:17;;;;;;;6.18;2.20;;;;;;;12.44;100.00;102467.78;10288186;28;20077;-70
2023/05/31 20:17:18;;;;;;;6.47;2.92;;;;;;;12.41;100.00;102459.97;10308470;28;20043;-69
2023/05/31 20:22:19;;;;;;;5.07;2.33;;;;;;;12.42;100.00;102461.63;10301444;28;20049;-71
2023/05/31 20:27:20;;;;;;;9.73;3.85;;;;;;;12.30;100.00;102456.88;10297760;28;20094;-69
2023/05/31 20:32:20;;;;;;;6.88;2.80;;;;;;;12.12;100.00;102462.34;10299481;28;20046;-69
2023/05/31 20:37:21;;;;;;;6.63;3.47;;;;;;;12.20;100.00;102456.56;10296368;28;20031;-70
2023/05/31 20:42:21;;;;;;;9.63;2.80;;;;;;;12.11;100.00;102449.59;10296496;28;20042;-70
2023/05/31 20:47:22;;;;;;;6.43;3.35;;;;;;;12.11;100.00;102460.66;10298514;28;20582;-70
2023/05/31 20:52:22;;;;;;;7.97;2.92;;;;;;;11.99;100.00;102426.56;10263547;28;20045;-70
2023/05/31 20:57:23;;;;;;;7.55;3.13;;;;;;;11.59;100.00;102356.00;10280775;28;20038;-70
2023/05/31 21:02:24;;;;;;;15.18;4.95;;;;;;;12.09;100.00;102458.13;10311157;28;20046;-70
2023/05/31 21:07:25;;;;;;;6.85;3.33;;;;;;;11.99;100.00;102445.91;10285036;28;20062;-69
2023/05/31 21:12:25;;;;;;;8.15;4.28;;;;;;;12.08;100.00;102452.84;10295951;28;20085;-69
2023/05/31 21:17:27;;;;;;;8.18;3.28;;;;;;;12.04;100.00;102454.34;10281269;28;20063;-69
2023/05/31 21:22:28;;;;;;;10.02;3.15;;;;;;;11.96;100.00;102451.88;10295086;28;20045;-70
2023/05/31 21:27:29;;;;;;;10.40;3.72;;;;;;;11.88;100.00;102451.06;10272489;28;20039;-69
2023/05/31 21:32:30;;;;;;;9.38;3.90;;;;;;;11.78;100.00;102439.69;10262880;28;20043;-69
2023/05/31 21:37:30;;;;;;;7.13;3.38;;;;;;;11.55;100.00;102418.19;10272357;28;20062;-70
2023/05/31 21:42:31;;;;;;;9.48;3.35;;;;;;;11.81;100.00;102441.16;10268838;28;20047;-68
2023/05/31 21:47:31;;;;;;;10.88;3.97;;;;;;;11.71;100.00;102448.00;10288252;28;20062;-69
2023/05/31 21:52:32;;;;;;;10.90;3.50;;;;;;;11.61;100.00;102424.72;10296718;28;20434;-70
2023/05/31 21:57:32;;;;;;;7.22;3.35;;;;;;;11.76;100.00;102438.19;10270558;28;20123;-69
2023/05/31 22:02:36;;;;;;;5.78;2.75;;;;;;;11.68;100.00;102436.59;10220958;28;20207;-71
2023/05/31 22:07:37;;;;;;;11.07;5.82;;;;;;;11.69;100.00;102443.78;10233218;28;20039;-71
2023/05/31 22:12:37;;;;;;;10.10;4.00;;;;;;;11.75;100.00;102448.41;10267331;28;20105;-70
2023/05/31 22:17:39;;;;;;;13.18;4.72;;;;;;;11.77;100.00;102448.19;10244738;28;20068;-70
2023/05/31 22:22:40;;;;;;;7.70;3.30;;;;;;;11.84;100.00;102452.56;10245340;28;20102;-70
2023/05/31 22:27:40;;;;;;;9.57;3.35;;;;;;;11.80;100.00;102448.59;10229444;28;20043;-70
2023/05/31 22:32:41;;;;;;;10.13;3.08;;;;;;;11.68;100.00;102445.69;10266072;28;20884;-70
2023/05/31 22:37:41;;;;;;;9.88;3.75;;;;;;;11.66;100.00;102450.59;10263379;28;20044;-71
2023/05/31 22:42:42;;;;;;;11.00;3.75;;;;;;;11.69;100.00;102447.38;10219140;28;20042;-71
2023/05/31 22:47:44;;;;;;;15.48;3.90;;;;;;;11.68;100.00;102445.69;10249406;28;20095;-70
2023/05/31 22:52:47;;;;;;;12.32;3.47;;;;;;;11.69;100.00;102454.81;10256309;28;20039;-70